sensor_id;sensor_type;location;lat;lon;timestamp;P1;durP1;ratioP1;P2;durP2;ratioP2
61911;SDS011;49973;52.084;5.412;2024-02-26T00:00:03;1.77;;;1.40;;
61911;SDS011;49973;52.084;5.412;2024-02-26T00:02:35;1.47;;;1.33;;
61911;SDS011;49973;52.084;5.412;2024-02-26T00:05:05;2.63;;;1.57;;
61911;SDS011;49973;52.084;5.412;2024-02-26T00:07:35;1.93;;;1.53;;
61911;SDS011;49973;52.084;5.412;2024-02-26T00:10:06;1.60;;;1.50;;
61911;SDS011;49973;52.084;5.412;2024-02-26T00:12:36;1.13;;;1.03;;
61911;SDS011;49973;52.084;5.412;2024-02-26T00:15:06;1.87;;;1.77;;
61911;SDS011;49973;52.084;5.412;2024-02-26T00:17:35;2.00;;;1.37;;
61911;SDS011;49973;52.084;5.412;2024-02-26T00:20:05;1.33;;;1.23;;
61911;SDS011;49973;52.084;5.412;2024-02-26T00:22:35;1.80;;;1.47;;
61911;SDS011;49973;52.084;5.412;2024-02-26T00:25:06;1.37;;;1.27;;
61911;SDS011;49973;52.084;5.412;2024-02-26T00:27:35;3.00;;;1.57;;
61911;SDS011;49973;52.084;5.412;2024-02-26T00:30:04;1.77;;;1.67;;
61911;SDS011;49973;52.084;5.412;2024-02-26T00:32:33;2.50;;;1.90;;
61911;SDS011;49973;52.084;5.412;2024-02-26T00:35:02;2.20;;;1.27;;
61911;SDS011;49973;52.084;5.412;2024-02-26T00:37:31;3.83;;;1.60;;
61911;SDS011;49973;52.084;5.412;2024-02-26T00:40:00;1.40;;;1.30;;
61911;SDS011;49973;52.084;5.412;2024-02-26T00:42:29;1.83;;;1.30;;
61911;SDS011;49973;52.084;5.412;2024-02-26T00:44:58;1.50;;;1.40;;
61911;SDS011;49973;52.084;5.412;2024-02-26T00:47:27;3.13;;;1.57;;
61911;SDS011;49973;52.084;5.412;2024-02-26T00:49:55;2.20;;;1.60;;
61911;SDS011;49973;52.084;5.412;2024-02-26T00:52:24;1.50;;;1.23;;
61911;SDS011;49973;52.084;5.412;2024-02-26T00:54:52;1.30;;;1.20;;
61911;SDS011;49973;52.084;5.412;2024-02-26T00:57:21;1.83;;;1.73;;
61911;SDS011;49973;52.084;5.412;2024-02-26T00:59:51;15.17;;;1.80;;
61911;SDS011;49973;52.084;5.412;2024-02-26T01:02:22;1.60;;;1.50;;
61911;SDS011;49973;52.084;5.412;2024-02-26T01:04:50;2.63;;;1.93;;
61911;SDS011;49973;52.084;5.412;2024-02-26T01:07:19;2.03;;;1.73;;
61911;SDS011;49973;52.084;5.412;2024-02-26T01:09:48;4.30;;;1.77;;
61911;SDS011;49973;52.084;5.412;2024-02-26T01:12:16;2.67;;;2.00;;
61911;SDS011;49973;52.084;5.412;2024-02-26T01:14:45;3.67;;;1.93;;
61911;SDS011;49973;52.084;5.412;2024-02-26T01:17:15;2.30;;;1.63;;
61911;SDS011;49973;52.084;5.412;2024-02-26T01:19:44;2.63;;;1.67;;
61911;SDS011;49973;52.084;5.412;2024-02-26T01:22:13;5.70;;;1.97;;
61911;SDS011;49973;52.084;5.412;2024-02-26T01:24:42;2.53;;;1.90;;
61911;SDS011;49973;52.084;5.412;2024-02-26T01:27:10;2.03;;;1.70;;
61911;SDS011;49973;52.084;5.412;2024-02-26T01:29:41;2.27;;;1.60;;
61911;SDS011;49973;52.084;5.412;2024-02-26T01:32:10;1.63;;;1.53;;
61911;SDS011;49973;52.084;5.412;2024-02-26T01:34:39;5.10;;;2.00;;
61911;SDS011;49973;52.084;5.412;2024-02-26T01:37:08;1.67;;;1.57;;
61911;SDS011;49973;52.084;5.412;2024-02-26T01:39:37;2.50;;;1.83;;
61911;SDS011;49973;52.084;5.412;2024-02-26T01:42:07;1.77;;;1.40;;
61911;SDS011;49973;52.084;5.412;2024-02-26T01:44:35;2.50;;;1.93;;
61911;SDS011;49973;52.084;5.412;2024-02-26T01:47:05;1.90;;;1.80;;
61911;SDS011;49973;52.084;5.412;2024-02-26T01:49:36;1.40;;;1.30;;
61911;SDS011;49973;52.084;5.412;2024-02-26T01:52:08;1.70;;;1.60;;
61911;SDS011;49973;52.084;5.412;2024-02-26T01:54:38;1.67;;;1.57;;
61911;SDS011;49973;52.084;5.412;2024-02-26T01:57:09;1.87;;;1.77;;
61911;SDS011;49973;52.084;5.412;2024-02-26T01:59:38;1.77;;;1.63;;
61911;SDS011;49973;52.084;5.412;2024-02-26T02:02:08;1.70;;;1.60;;
61911;SDS011;49973;52.084;5.412;2024-02-26T02:04:39;4.20;;;2.33;;
61911;SDS011;49973;52.084;5.412;2024-02-26T02:07:10;6.47;;;2.07;;
61911;SDS011;49973;52.084;5.412;2024-02-26T02:09:39;2.97;;;2.10;;
61911;SDS011;49973;52.084;5.412;2024-02-26T02:12:08;2.60;;;2.07;;
61911;SDS011;49973;52.084;5.412;2024-02-26T02:14:37;2.53;;;2.30;;
61911;SDS011;49973;52.084;5.412;2024-02-26T02:17:06;2.23;;;1.47;;
61911;SDS011;49973;52.084;5.412;2024-02-26T02:19:35;1.87;;;1.63;;
61911;SDS011;49973;52.084;5.412;2024-02-26T02:22:05;3.70;;;1.83;;
61911;SDS011;49973;52.084;5.412;2024-02-26T02:24:34;2.50;;;2.27;;
61911;SDS011;49973;52.084;5.412;2024-02-26T02:27:02;2.30;;;1.57;;
61911;SDS011;49973;52.084;5.412;2024-02-26T02:29:32;1.77;;;1.43;;
61911;SDS011;49973;52.084;5.412;2024-02-26T02:32:01;1.40;;;1.20;;
61911;SDS011;49973;52.084;5.412;2024-02-26T02:34:31;4.23;;;2.00;;
61911;SDS011;49973;52.084;5.412;2024-02-26T02:37:01;2.97;;;1.97;;
61911;SDS011;49973;52.084;5.412;2024-02-26T02:39:31;1.77;;;1.67;;
61911;SDS011;49973;52.084;5.412;2024-02-26T02:41:59;3.37;;;1.93;;
61911;SDS011;49973;52.084;5.412;2024-02-26T02:44:28;2.27;;;1.73;;
61911;SDS011;49973;52.084;5.412;2024-02-26T02:46:57;3.23;;;2.23;;
61911;SDS011;49973;52.084;5.412;2024-02-26T02:49:25;2.37;;;1.60;;
61911;SDS011;49973;52.084;5.412;2024-02-26T02:51:54;4.03;;;2.23;;
61911;SDS011;49973;52.084;5.412;2024-02-26T02:54:24;2.83;;;2.30;;
61911;SDS011;49973;52.084;5.412;2024-02-26T02:56:54;3.17;;;1.80;;
61911;SDS011;49973;52.084;5.412;2024-02-26T02:59:23;1.43;;;1.27;;
61911;SDS011;49973;52.084;5.412;2024-02-26T03:01:51;5.07;;;2.53;;
61911;SDS011;49973;52.084;5.412;2024-02-26T03:04:20;2.73;;;2.53;;
61911;SDS011;49973;52.084;5.412;2024-02-26T03:06:49;3.23;;;1.43;;
61911;SDS011;49973;52.084;5.412;2024-02-26T03:09:17;3.23;;;2.20;;
61911;SDS011;49973;52.084;5.412;2024-02-26T03:11:46;3.00;;;2.40;;
61911;SDS011;49973;52.084;5.412;2024-02-26T03:14:16;2.33;;;2.07;;
61911;SDS011;49973;52.084;5.412;2024-02-26T03:16:45;3.20;;;2.10;;
61911;SDS011;49973;52.084;5.412;2024-02-26T03:19:14;2.73;;;1.57;;
61911;SDS011;49973;52.084;5.412;2024-02-26T03:21:43;3.07;;;1.50;;
61911;SDS011;49973;52.084;5.412;2024-02-26T03:24:12;4.57;;;2.07;;
61911;SDS011;49973;52.084;5.412;2024-02-26T03:26:41;2.43;;;2.23;;
61911;SDS011;49973;52.084;5.412;2024-02-26T03:29:10;4.07;;;2.77;;
61911;SDS011;49973;52.084;5.412;2024-02-26T03:31:40;2.83;;;1.73;;
61911;SDS011;49973;52.084;5.412;2024-02-26T03:34:08;4.20;;;2.50;;
61911;SDS011;49973;52.084;5.412;2024-02-26T03:36:39;3.17;;;2.47;;
61911;SDS011;49973;52.084;5.412;2024-02-26T03:39:08;5.20;;;1.97;;
61911;SDS011;49973;52.084;5.412;2024-02-26T03:41:36;3.57;;;2.33;;
61911;SDS011;49973;52.084;5.412;2024-02-26T03:44:04;2.63;;;1.67;;
61911;SDS011;49973;52.084;5.412;2024-02-26T03:46:32;4.43;;;2.30;;
61911;SDS011;49973;52.084;5.412;2024-02-26T03:49:03;3.57;;;2.10;;
61911;SDS011;49973;52.084;5.412;2024-02-26T03:51:31;4.40;;;2.10;;
61911;SDS011;49973;52.084;5.412;2024-02-26T03:54:00;5.00;;;2.83;;
61911;SDS011;49973;52.084;5.412;2024-02-26T03:56:29;3.23;;;2.03;;
61911;SDS011;49973;52.084;5.412;2024-02-26T03:58:58;5.60;;;3.23;;
61911;SDS011;49973;52.084;5.412;2024-02-26T04:01:29;3.50;;;1.90;;
61911;SDS011;49973;52.084;5.412;2024-02-26T04:03:57;2.60;;;1.90;;
61911;SDS011;49973;52.084;5.412;2024-02-26T04:06:27;4.47;;;2.93;;
61911;SDS011;49973;52.084;5.412;2024-02-26T04:08:56;2.73;;;1.93;;
61911;SDS011;49973;52.084;5.412;2024-02-26T04:11:25;3.93;;;2.07;;
61911;SDS011;49973;52.084;5.412;2024-02-26T04:13:53;3.23;;;2.10;;
61911;SDS011;49973;52.084;5.412;2024-02-26T04:16:22;2.83;;;2.07;;
61911;SDS011;49973;52.084;5.412;2024-02-26T04:18:50;4.10;;;2.73;;
61911;SDS011;49973;52.084;5.412;2024-02-26T04:21:20;2.73;;;2.27;;
61911;SDS011;49973;52.084;5.412;2024-02-26T04:23:50;7.73;;;2.57;;
61911;SDS011;49973;52.084;5.412;2024-02-26T04:26:22;4.07;;;2.67;;
61911;SDS011;49973;52.084;5.412;2024-02-26T04:28:50;3.43;;;2.80;;
61911;SDS011;49973;52.084;5.412;2024-02-26T04:31:19;5.07;;;2.53;;
61911;SDS011;49973;52.084;5.412;2024-02-26T04:33:48;3.87;;;2.60;;
61911;SDS011;49973;52.084;5.412;2024-02-26T04:36:17;2.93;;;2.23;;
61911;SDS011;49973;52.084;5.412;2024-02-26T04:38:45;3.10;;;2.40;;
61911;SDS011;49973;52.084;5.412;2024-02-26T04:41:16;5.90;;;2.40;;
61911;SDS011;49973;52.084;5.412;2024-02-26T04:43:44;4.07;;;2.03;;
61911;SDS011;49973;52.084;5.412;2024-02-26T04:46:13;2.93;;;2.03;;
61911;SDS011;49973;52.084;5.412;2024-02-26T04:48:41;2.90;;;2.40;;
61911;SDS011;49973;52.084;5.412;2024-02-26T04:51:12;3.87;;;2.70;;
61911;SDS011;49973;52.084;5.412;2024-02-26T04:53:41;4.20;;;2.17;;
61911;SDS011;49973;52.084;5.412;2024-02-26T04:56:10;5.20;;;3.30;;
61911;SDS011;49973;52.084;5.412;2024-02-26T04:58:40;3.17;;;2.13;;
61911;SDS011;49973;52.084;5.412;2024-02-26T05:01:09;4.13;;;2.10;;
61911;SDS011;49973;52.084;5.412;2024-02-26T05:03:38;2.70;;;1.97;;
61911;SDS011;49973;52.084;5.412;2024-02-26T05:06:07;8.17;;;2.50;;
61911;SDS011;49973;52.084;5.412;2024-02-26T05:08:36;1.90;;;1.67;;
61911;SDS011;49973;52.084;5.412;2024-02-26T05:11:05;3.33;;;2.50;;
61911;SDS011;49973;52.084;5.412;2024-02-26T05:13:34;3.90;;;2.70;;
61911;SDS011;49973;52.084;5.412;2024-02-26T05:16:04;3.63;;;2.17;;
61911;SDS011;49973;52.084;5.412;2024-02-26T05:18:33;4.43;;;2.33;;
61911;SDS011;49973;52.084;5.412;2024-02-26T05:21:02;4.20;;;2.37;;
61911;SDS011;49973;52.084;5.412;2024-02-26T05:23:31;2.07;;;1.80;;
61911;SDS011;49973;52.084;5.412;2024-02-26T05:26:00;4.33;;;2.57;;
61911;SDS011;49973;52.084;5.412;2024-02-26T05:28:28;4.33;;;2.23;;
61911;SDS011;49973;52.084;5.412;2024-02-26T05:30:57;2.07;;;1.73;;
61911;SDS011;49973;52.084;5.412;2024-02-26T05:33:27;2.47;;;2.17;;
61911;SDS011;49973;52.084;5.412;2024-02-26T05:35:55;2.80;;;2.20;;
61911;SDS011;49973;52.084;5.412;2024-02-26T05:38:31;2.93;;;2.57;;
61911;SDS011;49973;52.084;5.412;2024-02-26T05:40:59;2.80;;;2.10;;
61911;SDS011;49973;52.084;5.412;2024-02-26T05:43:28;4.93;;;2.97;;
61911;SDS011;49973;52.084;5.412;2024-02-26T05:45:56;2.80;;;2.10;;
61911;SDS011;49973;52.084;5.412;2024-02-26T05:48:26;4.17;;;2.30;;
61911;SDS011;49973;52.084;5.412;2024-02-26T05:50:55;3.03;;;2.17;;
61911;SDS011;49973;52.084;5.412;2024-02-26T05:53:24;3.47;;;2.33;;
61911;SDS011;49973;52.084;5.412;2024-02-26T05:55:52;3.00;;;2.40;;
61911;SDS011;49973;52.084;5.412;2024-02-26T05:58:21;2.97;;;2.03;;
61911;SDS011;49973;52.084;5.412;2024-02-26T06:00:49;4.23;;;2.57;;
61911;SDS011;49973;52.084;5.412;2024-02-26T06:03:18;4.00;;;2.03;;
61911;SDS011;49973;52.084;5.412;2024-02-26T06:05:48;4.53;;;3.17;;
61911;SDS011;49973;52.084;5.412;2024-02-26T06:08:17;2.97;;;2.07;;
61911;SDS011;49973;52.084;5.412;2024-02-26T06:10:46;3.87;;;2.97;;
61911;SDS011;49973;52.084;5.412;2024-02-26T06:13:14;6.70;;;2.90;;
61911;SDS011;49973;52.084;5.412;2024-02-26T06:15:43;1.67;;;1.57;;
61911;SDS011;49973;52.084;5.412;2024-02-26T06:18:11;4.47;;;2.87;;
61911;SDS011;49973;52.084;5.412;2024-02-26T06:20:40;6.30;;;3.30;;
61911;SDS011;49973;52.084;5.412;2024-02-26T06:23:10;5.17;;;2.70;;
61911;SDS011;49973;52.084;5.412;2024-02-26T06:25:39;5.00;;;3.17;;
61911;SDS011;49973;52.084;5.412;2024-02-26T06:28:09;4.70;;;2.60;;
61911;SDS011;49973;52.084;5.412;2024-02-26T06:30:38;3.37;;;2.17;;
61911;SDS011;49973;52.084;5.412;2024-02-26T06:33:06;4.93;;;3.33;;
61911;SDS011;49973;52.084;5.412;2024-02-26T06:35:35;3.47;;;2.70;;
61911;SDS011;49973;52.084;5.412;2024-02-26T06:38:04;4.83;;;2.73;;
61911;SDS011;49973;52.084;5.412;2024-02-26T06:40:33;3.20;;;2.50;;
61911;SDS011;49973;52.084;5.412;2024-02-26T06:43:02;5.13;;;2.87;;
61911;SDS011;49973;52.084;5.412;2024-02-26T06:45:31;3.67;;;2.43;;
61911;SDS011;49973;52.084;5.412;2024-02-26T06:47:59;3.37;;;2.50;;
61911;SDS011;49973;52.084;5.412;2024-02-26T06:50:29;4.93;;;2.87;;
61911;SDS011;49973;52.084;5.412;2024-02-26T06:52:58;5.77;;;3.03;;
61911;SDS011;49973;52.084;5.412;2024-02-26T06:55:27;4.33;;;2.73;;
61911;SDS011;49973;52.084;5.412;2024-02-26T06:57:58;4.83;;;3.37;;
61911;SDS011;49973;52.084;5.412;2024-02-26T07:00:27;7.07;;;3.57;;
61911;SDS011;49973;52.084;5.412;2024-02-26T07:02:56;4.30;;;2.90;;
61911;SDS011;49973;52.084;5.412;2024-02-26T07:05:25;8.57;;;2.57;;
61911;SDS011;49973;52.084;5.412;2024-02-26T07:07:54;3.30;;;2.40;;
61911;SDS011;49973;52.084;5.412;2024-02-26T07:10:22;3.70;;;2.77;;
61911;SDS011;49973;52.084;5.412;2024-02-26T07:12:51;4.47;;;2.47;;
61911;SDS011;49973;52.084;5.412;2024-02-26T07:15:21;4.43;;;3.17;;
61911;SDS011;49973;52.084;5.412;2024-02-26T07:17:50;6.07;;;3.30;;
61911;SDS011;49973;52.084;5.412;2024-02-26T07:20:18;6.03;;;3.70;;
61911;SDS011;49973;52.084;5.412;2024-02-26T07:22:47;6.03;;;3.43;;
61911;SDS011;49973;52.084;5.412;2024-02-26T07:25:16;7.07;;;3.37;;
61911;SDS011;49973;52.084;5.412;2024-02-26T07:27:44;4.73;;;2.50;;
61911;SDS011;49973;52.084;5.412;2024-02-26T07:30:13;6.67;;;4.03;;
61911;SDS011;49973;52.084;5.412;2024-02-26T07:32:44;6.50;;;4.00;;
61911;SDS011;49973;52.084;5.412;2024-02-26T07:35:17;8.53;;;4.07;;
61911;SDS011;49973;52.084;5.412;2024-02-26T07:37:47;3.63;;;2.57;;
61911;SDS011;49973;52.084;5.412;2024-02-26T07:40:16;7.10;;;2.97;;
61911;SDS011;49973;52.084;5.412;2024-02-26T07:42:45;7.30;;;3.33;;
61911;SDS011;49973;52.084;5.412;2024-02-26T07:45:14;6.27;;;4.00;;
61911;SDS011;49973;52.084;5.412;2024-02-26T07:47:48;9.67;;;3.27;;
61911;SDS011;49973;52.084;5.412;2024-02-26T07:50:19;6.13;;;3.50;;
61911;SDS011;49973;52.084;5.412;2024-02-26T07:52:47;8.20;;;3.43;;
61911;SDS011;49973;52.084;5.412;2024-02-26T07:55:18;5.87;;;3.87;;
61911;SDS011;49973;52.084;5.412;2024-02-26T07:57:47;6.90;;;3.57;;
61911;SDS011;49973;52.084;5.412;2024-02-26T08:00:16;8.03;;;3.90;;
61911;SDS011;49973;52.084;5.412;2024-02-26T08:02:45;10.13;;;4.40;;
61911;SDS011;49973;52.084;5.412;2024-02-26T08:05:15;7.60;;;4.13;;
61911;SDS011;49973;52.084;5.412;2024-02-26T08:07:44;11.17;;;6.10;;
61911;SDS011;49973;52.084;5.412;2024-02-26T08:10:13;5.93;;;4.50;;
61911;SDS011;49973;52.084;5.412;2024-02-26T08:12:42;10.60;;;5.20;;
61911;SDS011;49973;52.084;5.412;2024-02-26T08:15:12;6.40;;;2.83;;
61911;SDS011;49973;52.084;5.412;2024-02-26T08:17:40;6.80;;;4.43;;
61911;SDS011;49973;52.084;5.412;2024-02-26T08:20:09;7.90;;;3.90;;
61911;SDS011;49973;52.084;5.412;2024-02-26T08:22:41;9.80;;;5.33;;
61911;SDS011;49973;52.084;5.412;2024-02-26T08:25:10;10.20;;;5.00;;
61911;SDS011;49973;52.084;5.412;2024-02-26T08:27:38;10.90;;;5.50;;
61911;SDS011;49973;52.084;5.412;2024-02-26T08:30:09;6.50;;;3.90;;
61911;SDS011;49973;52.084;5.412;2024-02-26T08:32:40;8.87;;;3.50;;
61911;SDS011;49973;52.084;5.412;2024-02-26T08:35:09;6.97;;;3.33;;
61911;SDS011;49973;52.084;5.412;2024-02-26T08:37:38;7.33;;;4.73;;
61911;SDS011;49973;52.084;5.412;2024-02-26T08:40:09;10.10;;;5.40;;
61911;SDS011;49973;52.084;5.412;2024-02-26T08:42:38;6.90;;;4.23;;
61911;SDS011;49973;52.084;5.412;2024-02-26T08:45:07;4.70;;;2.30;;
61911;SDS011;49973;52.084;5.412;2024-02-26T08:47:37;7.23;;;3.87;;
61911;SDS011;49973;52.084;5.412;2024-02-26T08:50:06;5.70;;;3.23;;
61911;SDS011;49973;52.084;5.412;2024-02-26T08:52:36;7.33;;;4.30;;
61911;SDS011;49973;52.084;5.412;2024-02-26T08:55:05;4.97;;;2.53;;
61911;SDS011;49973;52.084;5.412;2024-02-26T08:57:37;6.80;;;3.27;;
61911;SDS011;49973;52.084;5.412;2024-02-26T09:00:06;5.93;;;2.80;;
61911;SDS011;49973;52.084;5.412;2024-02-26T09:02:35;4.73;;;3.23;;
61911;SDS011;49973;52.084;5.412;2024-02-26T09:05:05;3.77;;;2.00;;
61911;SDS011;49973;52.084;5.412;2024-02-26T09:07:34;2.67;;;1.80;;
61911;SDS011;49973;52.084;5.412;2024-02-26T09:10:04;4.33;;;2.57;;
61911;SDS011;49973;52.084;5.412;2024-02-26T09:12:36;3.07;;;2.10;;
61911;SDS011;49973;52.084;5.412;2024-02-26T09:15:07;3.00;;;2.77;;
61911;SDS011;49973;52.084;5.412;2024-02-26T09:17:36;3.53;;;2.47;;
61911;SDS011;49973;52.084;5.412;2024-02-26T09:20:05;6.03;;;3.80;;
61911;SDS011;49973;52.084;5.412;2024-02-26T09:22:36;4.03;;;2.27;;
61911;SDS011;49973;52.084;5.412;2024-02-26T09:25:06;3.17;;;2.03;;
61911;SDS011;49973;52.084;5.412;2024-02-26T09:27:39;3.63;;;2.20;;
61911;SDS011;49973;52.084;5.412;2024-02-26T09:30:10;3.80;;;2.63;;
61911;SDS011;49973;52.084;5.412;2024-02-26T09:32:40;4.33;;;2.80;;
61911;SDS011;49973;52.084;5.412;2024-02-26T09:35:09;5.87;;;3.17;;
61911;SDS011;49973;52.084;5.412;2024-02-26T09:37:37;5.97;;;2.83;;
61911;SDS011;49973;52.084;5.412;2024-02-26T09:40:06;4.10;;;2.60;;
61911;SDS011;49973;52.084;5.412;2024-02-26T09:42:42;5.23;;;2.93;;
61911;SDS011;49973;52.084;5.412;2024-02-26T09:45:12;2.70;;;2.23;;
61911;SDS011;49973;52.084;5.412;2024-02-26T09:47:47;4.97;;;3.10;;
61911;SDS011;49973;52.084;5.412;2024-02-26T09:50:17;4.60;;;2.77;;
61911;SDS011;49973;52.084;5.412;2024-02-26T09:52:50;4.03;;;2.37;;
61911;SDS011;49973;52.084;5.412;2024-02-26T09:55:20;3.30;;;1.80;;
61911;SDS011;49973;52.084;5.412;2024-02-26T09:57:51;4.07;;;2.20;;
61911;SDS011;49973;52.084;5.412;2024-02-26T10:00:21;3.37;;;2.00;;
61911;SDS011;49973;52.084;5.412;2024-02-26T10:02:50;4.40;;;2.40;;
61911;SDS011;49973;52.084;5.412;2024-02-26T10:05:20;1.83;;;1.57;;
61911;SDS011;49973;52.084;5.412;2024-02-26T10:07:49;2.87;;;1.73;;
61911;SDS011;49973;52.084;5.412;2024-02-26T10:10:19;2.97;;;1.67;;
61911;SDS011;49973;52.084;5.412;2024-02-26T10:12:48;2.33;;;2.13;;
61911;SDS011;49973;52.084;5.412;2024-02-26T10:15:18;3.40;;;2.27;;
61911;SDS011;49973;52.084;5.412;2024-02-26T10:17:46;2.20;;;1.70;;
61911;SDS011;49973;52.084;5.412;2024-02-26T10:20:16;4.03;;;2.27;;
61911;SDS011;49973;52.084;5.412;2024-02-26T10:22:46;5.13;;;2.00;;
61911;SDS011;49973;52.084;5.412;2024-02-26T10:25:15;2.20;;;2.00;;
61911;SDS011;49973;52.084;5.412;2024-02-26T10:27:45;2.37;;;2.03;;
61911;SDS011;49973;52.084;5.412;2024-02-26T10:30:19;4.87;;;2.50;;
61911;SDS011;49973;52.084;5.412;2024-02-26T10:32:49;4.03;;;2.47;;
61911;SDS011;49973;52.084;5.412;2024-02-26T10:35:18;3.63;;;1.73;;
61911;SDS011;49973;52.084;5.412;2024-02-26T10:37:48;3.03;;;1.53;;
61911;SDS011;49973;52.084;5.412;2024-02-26T10:40:18;2.63;;;2.20;;
61911;SDS011;49973;52.084;5.412;2024-02-26T10:42:47;2.97;;;2.07;;
61911;SDS011;49973;52.084;5.412;2024-02-26T10:45:15;8.63;;;3.27;;
61911;SDS011;49973;52.084;5.412;2024-02-26T10:47:46;2.30;;;1.70;;
61911;SDS011;49973;52.084;5.412;2024-02-26T10:50:15;3.53;;;1.97;;
61911;SDS011;49973;52.084;5.412;2024-02-26T10:52:44;3.27;;;2.07;;
61911;SDS011;49973;52.084;5.412;2024-02-26T10:55:13;3.77;;;2.17;;
61911;SDS011;49973;52.084;5.412;2024-02-26T10:57:45;2.60;;;1.97;;
61911;SDS011;49973;52.084;5.412;2024-02-26T11:00:15;3.67;;;1.90;;
61911;SDS011;49973;52.084;5.412;2024-02-26T11:02:46;3.13;;;2.47;;
61911;SDS011;49973;52.084;5.412;2024-02-26T11:05:17;2.83;;;2.20;;
61911;SDS011;49973;52.084;5.412;2024-02-26T11:07:46;4.77;;;3.33;;
61911;SDS011;49973;52.084;5.412;2024-02-26T11:10:17;1.97;;;1.73;;
61911;SDS011;49973;52.084;5.412;2024-02-26T11:12:46;2.77;;;1.90;;
61911;SDS011;49973;52.084;5.412;2024-02-26T11:15:17;4.63;;;2.40;;
61911;SDS011;49973;52.084;5.412;2024-02-26T11:17:48;2.07;;;1.37;;
61911;SDS011;49973;52.084;5.412;2024-02-26T11:20:20;3.70;;;2.30;;
61911;SDS011;49973;52.084;5.412;2024-02-26T11:22:49;3.00;;;1.73;;
61911;SDS011;49973;52.084;5.412;2024-02-26T11:25:17;4.13;;;2.13;;
61911;SDS011;49973;52.084;5.412;2024-02-26T11:27:48;3.63;;;2.30;;
61911;SDS011;49973;52.084;5.412;2024-02-26T11:30:19;2.93;;;2.20;;
61911;SDS011;49973;52.084;5.412;2024-02-26T11:32:51;4.10;;;2.50;;
61911;SDS011;49973;52.084;5.412;2024-02-26T11:35:21;3.50;;;2.27;;
61911;SDS011;49973;52.084;5.412;2024-02-26T11:37:51;3.10;;;2.50;;
61911;SDS011;49973;52.084;5.412;2024-02-26T11:40:21;2.37;;;1.80;;
61911;SDS011;49973;52.084;5.412;2024-02-26T11:42:51;2.33;;;1.83;;
61911;SDS011;49973;52.084;5.412;2024-02-26T11:48:25;2.60;;;2.13;;
61911;SDS011;49973;52.084;5.412;2024-02-26T11:50:56;3.17;;;2.30;;
61911;SDS011;49973;52.084;5.412;2024-02-26T11:53:26;2.50;;;2.30;;
61911;SDS011;49973;52.084;5.412;2024-02-26T11:56:12;4.33;;;2.73;;
61911;SDS011;49973;52.084;5.412;2024-02-26T11:58:41;3.00;;;2.20;;
61911;SDS011;49973;52.084;5.412;2024-02-26T12:04:12;2.63;;;1.57;;
61911;SDS011;49973;52.084;5.412;2024-02-26T12:06:43;4.13;;;2.20;;
61911;SDS011;49973;52.084;5.412;2024-02-26T12:12:05;3.53;;;2.40;;
61911;SDS011;49973;52.084;5.412;2024-02-26T12:14:39;2.30;;;1.50;;
61911;SDS011;49973;52.084;5.412;2024-02-26T12:17:19;4.23;;;2.73;;
61911;SDS011;49973;52.084;5.412;2024-02-26T12:19:50;3.90;;;2.30;;
61911;SDS011;49973;52.084;5.412;2024-02-26T12:22:20;1.70;;;1.13;;
61911;SDS011;49973;52.084;5.412;2024-02-26T12:24:57;3.50;;;2.80;;
61911;SDS011;49973;52.084;5.412;2024-02-26T12:27:27;3.30;;;2.23;;
61911;SDS011;49973;52.084;5.412;2024-02-26T12:29:56;4.40;;;2.47;;
61911;SDS011;49973;52.084;5.412;2024-02-26T12:32:25;3.70;;;2.07;;
61911;SDS011;49973;52.084;5.412;2024-02-26T12:34:55;3.87;;;2.90;;
61911;SDS011;49973;52.084;5.412;2024-02-26T12:37:25;2.50;;;1.53;;
61911;SDS011;49973;52.084;5.412;2024-02-26T12:39:53;4.37;;;1.97;;
61911;SDS011;49973;52.084;5.412;2024-02-26T12:42:22;2.83;;;1.70;;
61911;SDS011;49973;52.084;5.412;2024-02-26T12:44:51;2.73;;;1.83;;
61911;SDS011;49973;52.084;5.412;2024-02-26T12:47:20;4.27;;;1.73;;
61911;SDS011;49973;52.084;5.412;2024-02-26T12:49:49;4.67;;;2.77;;
61911;SDS011;49973;52.084;5.412;2024-02-26T12:52:19;4.23;;;2.63;;
61911;SDS011;49973;52.084;5.412;2024-02-26T12:54:48;3.73;;;1.97;;
61911;SDS011;49973;52.084;5.412;2024-02-26T12:57:17;2.77;;;1.90;;
61911;SDS011;49973;52.084;5.412;2024-02-26T12:59:46;6.07;;;2.70;;
61911;SDS011;49973;52.084;5.412;2024-02-26T13:02:15;3.50;;;1.97;;
61911;SDS011;49973;52.084;5.412;2024-02-26T13:04:44;3.27;;;1.90;;
61911;SDS011;49973;52.084;5.412;2024-02-26T13:07:13;2.37;;;2.00;;
61911;SDS011;49973;52.084;5.412;2024-02-26T13:09:43;4.63;;;2.10;;
61911;SDS011;49973;52.084;5.412;2024-02-26T13:12:12;1.77;;;1.40;;
61911;SDS011;49973;52.084;5.412;2024-02-26T13:14:41;4.60;;;2.50;;
61911;SDS011;49973;52.084;5.412;2024-02-26T13:17:10;3.53;;;2.60;;
61911;SDS011;49973;52.084;5.412;2024-02-26T13:19:48;2.43;;;1.73;;
61911;SDS011;49973;52.084;5.412;2024-02-26T13:22:17;3.63;;;2.87;;
61911;SDS011;49973;52.084;5.412;2024-02-26T13:24:57;3.10;;;2.17;;
61911;SDS011;49973;52.084;5.412;2024-02-26T13:27:27;1.90;;;1.43;;
61911;SDS011;49973;52.084;5.412;2024-02-26T13:30:02;5.07;;;2.53;;
61911;SDS011;49973;52.084;5.412;2024-02-26T13:32:33;3.07;;;2.10;;
61911;SDS011;49973;52.084;5.412;2024-02-26T13:35:06;5.20;;;3.03;;
61911;SDS011;49973;52.084;5.412;2024-02-26T13:37:35;2.97;;;1.90;;
61911;SDS011;49973;52.084;5.412;2024-02-26T13:40:07;3.57;;;2.40;;
61911;SDS011;49973;52.084;5.412;2024-02-26T13:42:37;2.77;;;2.00;;
61911;SDS011;49973;52.084;5.412;2024-02-26T13:45:06;2.80;;;2.00;;
61911;SDS011;49973;52.084;5.412;2024-02-26T13:47:36;3.03;;;2.13;;
61911;SDS011;49973;52.084;5.412;2024-02-26T13:50:05;2.50;;;1.90;;
61911;SDS011;49973;52.084;5.412;2024-02-26T13:52:34;3.53;;;1.73;;
61911;SDS011;49973;52.084;5.412;2024-02-26T13:55:03;4.37;;;2.10;;
61911;SDS011;49973;52.084;5.412;2024-02-26T13:57:33;2.67;;;1.97;;
61911;SDS011;49973;52.084;5.412;2024-02-26T14:00:02;4.20;;;2.67;;
61911;SDS011;49973;52.084;5.412;2024-02-26T14:02:37;2.03;;;1.70;;
61911;SDS011;49973;52.084;5.412;2024-02-26T14:05:06;3.13;;;1.97;;
61911;SDS011;49973;52.084;5.412;2024-02-26T14:07:35;2.73;;;2.00;;
61911;SDS011;49973;52.084;5.412;2024-02-26T14:10:04;3.57;;;2.53;;
61911;SDS011;49973;52.084;5.412;2024-02-26T14:12:35;1.77;;;1.20;;
61911;SDS011;49973;52.084;5.412;2024-02-26T14:15:05;2.80;;;1.70;;
61911;SDS011;49973;52.084;5.412;2024-02-26T14:17:37;4.20;;;2.07;;
61911;SDS011;49973;52.084;5.412;2024-02-26T14:20:06;3.47;;;1.73;;
61911;SDS011;49973;52.084;5.412;2024-02-26T14:22:36;2.57;;;1.63;;
61911;SDS011;49973;52.084;5.412;2024-02-26T14:25:04;1.70;;;1.50;;
61911;SDS011;49973;52.084;5.412;2024-02-26T14:27:37;2.50;;;2.00;;
61911;SDS011;49973;52.084;5.412;2024-02-26T14:30:06;2.47;;;1.40;;
61911;SDS011;49973;52.084;5.412;2024-02-26T14:32:36;3.73;;;2.17;;
61911;SDS011;49973;52.084;5.412;2024-02-26T14:35:05;2.73;;;1.40;;
61911;SDS011;49973;52.084;5.412;2024-02-26T14:37:42;2.90;;;2.00;;
61911;SDS011;49973;52.084;5.412;2024-02-26T14:40:14;1.87;;;1.37;;
61911;SDS011;49973;52.084;5.412;2024-02-26T14:42:44;3.30;;;1.73;;
61911;SDS011;49973;52.084;5.412;2024-02-26T14:45:13;1.30;;;1.20;;
61911;SDS011;49973;52.084;5.412;2024-02-26T14:47:43;3.03;;;2.10;;
61911;SDS011;49973;52.084;5.412;2024-02-26T14:50:12;1.87;;;1.50;;
61911;SDS011;49973;52.084;5.412;2024-02-26T14:52:41;3.07;;;1.50;;
61911;SDS011;49973;52.084;5.412;2024-02-26T14:55:09;2.23;;;1.70;;
61911;SDS011;49973;52.084;5.412;2024-02-26T14:57:38;2.80;;;1.77;;
61911;SDS011;49973;52.084;5.412;2024-02-26T15:00:10;1.97;;;1.03;;
61911;SDS011;49973;52.084;5.412;2024-02-26T15:02:39;2.17;;;1.43;;
61911;SDS011;49973;52.084;5.412;2024-02-26T15:05:07;3.07;;;1.53;;
61911;SDS011;49973;52.084;5.412;2024-02-26T15:07:38;2.63;;;1.97;;
61911;SDS011;49973;52.084;5.412;2024-02-26T15:10:08;2.10;;;1.63;;